sensor_id;sensor_type;location;lat;lon;timestamp;P1;durP1;ratioP1;P2;durP2;ratioP2
13034;SDS011;6584;48.022;11.810;2023-02-01T00:00:13;3.78;;;3.00;;
13034;SDS011;6584;48.022;11.810;2023-02-01T00:02:39;3.17;;;2.50;;
13034;SDS011;6584;48.022;11.810;2023-02-01T00:05:06;3.28;;;2.58;;
13034;SDS011;6584;48.022;11.810;2023-02-01T00:07:33;3.40;;;2.65;;
13034;SDS011;6584;48.022;11.810;2023-02-01T00:09:59;4.05;;;2.90;;
13034;SDS011;6584;48.022;11.810;2023-02-01T00:12:25;3.40;;;2.53;;
13034;SDS011;6584;48.022;11.810;2023-02-01T00:14:50;3.30;;;2.72;;
13034;SDS011;6584;48.022;11.810;2023-02-01T00:17:16;3.40;;;2.63;;
13034;SDS011;6584;48.022;11.810;2023-02-01T00:19:41;3.42;;;2.65;;
13034;SDS011;6584;48.022;11.810;2023-02-01T00:22:07;2.63;;;2.40;;
13034;SDS011;6584;48.022;11.810;2023-02-01T00:24:32;2.75;;;2.42;;
13034;SDS011;6584;48.022;11.810;2023-02-01T00:26:58;2.65;;;2.30;;
13034;SDS011;6584;48.022;11.810;2023-02-01T00:29:23;3.00;;;2.45;;
13034;SDS011;6584;48.022;11.810;2023-02-01T00:31:50;3.72;;;2.53;;
13034;SDS011;6584;48.022;11.810;2023-02-01T00:34:16;2.70;;;2.20;;
13034;SDS011;6584;48.022;11.810;2023-02-01T00:36:43;2.53;;;2.33;;
13034;SDS011;6584;48.022;11.810;2023-02-01T00:39:09;2.92;;;2.30;;
13034;SDS011;6584;48.022;11.810;2023-02-01T00:41:35;3.05;;;2.40;;
13034;SDS011;6584;48.022;11.810;2023-02-01T00:44:01;3.67;;;2.38;;
13034;SDS011;6584;48.022;11.810;2023-02-01T00:46:27;2.80;;;2.30;;
13034;SDS011;6584;48.022;11.810;2023-02-01T00:48:53;2.22;;;2.03;;
13034;SDS011;6584;48.022;11.810;2023-02-01T00:51:20;2.70;;;2.00;;
13034;SDS011;6584;48.022;11.810;2023-02-01T00:53:47;3.08;;;2.17;;
13034;SDS011;6584;48.022;11.810;2023-02-01T00:56:13;3.80;;;2.30;;
13034;SDS011;6584;48.022;11.810;2023-02-01T00:58:40;2.92;;;2.40;;
13034;SDS011;6584;48.022;11.810;2023-02-01T01:01:07;2.72;;;1.92;;
13034;SDS011;6584;48.022;11.810;2023-02-01T01:03:36;4.18;;;2.20;;
13034;SDS011;6584;48.022;11.810;2023-02-01T01:06:06;2.88;;;2.00;;
13034;SDS011;6584;48.022;11.810;2023-02-01T01:08:36;3.22;;;2.03;;
13034;SDS011;6584;48.022;11.810;2023-02-01T01:11:09;2.38;;;1.92;;
13034;SDS011;6584;48.022;11.810;2023-02-01T01:13:42;2.35;;;2.15;;
13034;SDS011;6584;48.022;11.810;2023-02-01T01:16:11;2.38;;;2.08;;
13034;SDS011;6584;48.022;11.810;2023-02-01T01:18:36;2.70;;;2.22;;
13034;SDS011;6584;48.022;11.810;2023-02-01T01:21:04;4.38;;;2.55;;
13034;SDS011;6584;48.022;11.810;2023-02-01T01:23:31;4.00;;;2.70;;
13034;SDS011;6584;48.022;11.810;2023-02-01T01:25:57;4.30;;;2.83;;
13034;SDS011;6584;48.022;11.810;2023-02-01T01:28:23;3.28;;;2.67;;
13034;SDS011;6584;48.022;11.810;2023-02-01T01:30:48;3.10;;;2.60;;
13034;SDS011;6584;48.022;11.810;2023-02-01T01:33:14;3.03;;;2.67;;
13034;SDS011;6584;48.022;11.810;2023-02-01T01:35:39;3.83;;;2.60;;
13034;SDS011;6584;48.022;11.810;2023-02-01T01:38:05;3.40;;;2.70;;
13034;SDS011;6584;48.022;11.810;2023-02-01T01:40:31;5.18;;;3.13;;
13034;SDS011;6584;48.022;11.810;2023-02-01T01:42:57;3.00;;;2.63;;
13034;SDS011;6584;48.022;11.810;2023-02-01T01:47:52;5.05;;;3.03;;
13034;SDS011;6584;48.022;11.810;2023-02-01T01:50:33;4.35;;;3.20;;
13034;SDS011;6584;48.022;11.810;2023-02-01T01:53:03;4.18;;;3.20;;
13034;SDS011;6584;48.022;11.810;2023-02-01T01:55:34;2.97;;;2.67;;
13034;SDS011;6584;48.022;11.810;2023-02-01T01:58:04;4.80;;;2.92;;
13034;SDS011;6584;48.022;11.810;2023-02-01T02:00:32;3.75;;;3.00;;
13034;SDS011;6584;48.022;11.810;2023-02-01T02:03:00;4.10;;;3.10;;
13034;SDS011;6584;48.022;11.810;2023-02-01T02:05:34;3.78;;;3.15;;
13034;SDS011;6584;48.022;11.810;2023-02-01T02:08:00;4.13;;;3.10;;
13034;SDS011;6584;48.022;11.810;2023-02-01T02:10:28;4.03;;;3.35;;
13034;SDS011;6584;48.022;11.810;2023-02-01T02:13:13;4.18;;;3.00;;
13034;SDS011;6584;48.022;11.810;2023-02-01T02:15:41;4.60;;;3.08;;
13034;SDS011;6584;48.022;11.810;2023-02-01T02:18:26;4.88;;;3.42;;
13034;SDS011;6584;48.022;11.810;2023-02-01T02:21:08;4.65;;;3.60;;
13034;SDS011;6584;48.022;11.810;2023-02-01T02:26:23;3.75;;;3.35;;
13034;SDS011;6584;48.022;11.810;2023-02-01T02:32:09;4.60;;;3.13;;
13034;SDS011;6584;48.022;11.810;2023-02-01T02:34:56;4.88;;;3.53;;
13034;SDS011;6584;48.022;11.810;2023-02-01T02:46:21;4.93;;;3.53;;
13034;SDS011;6584;48.022;11.810;2023-02-01T02:49:15;3.88;;;3.15;;
13034;SDS011;6584;48.022;11.810;2023-02-01T02:51:49;3.70;;;3.20;;
13034;SDS011;6584;48.022;11.810;2023-02-01T02:54:40;4.32;;;3.20;;
13034;SDS011;6584;48.022;11.810;2023-02-01T02:57:18;3.70;;;3.17;;
13034;SDS011;6584;48.022;11.810;2023-02-01T03:00:09;4.93;;;3.17;;
13034;SDS011;6584;48.022;11.810;2023-02-01T03:02:58;3.53;;;3.00;;
13034;SDS011;6584;48.022;11.810;2023-02-01T03:05:46;3.55;;;3.10;;
13034;SDS011;6584;48.022;11.810;2023-02-01T03:08:16;3.50;;;2.92;;
13034;SDS011;6584;48.022;11.810;2023-02-01T03:10:48;3.15;;;2.72;;
13034;SDS011;6584;48.022;11.810;2023-02-01T03:18:55;3.50;;;3.20;;
13034;SDS011;6584;48.022;11.810;2023-02-01T03:21:35;3.60;;;3.10;;
13034;SDS011;6584;48.022;11.810;2023-02-01T03:24:10;3.15;;;2.80;;
13034;SDS011;6584;48.022;11.810;2023-02-01T03:26:41;4.22;;;3.17;;
13034;SDS011;6584;48.022;11.810;2023-02-01T03:29:14;3.38;;;2.80;;
13034;SDS011;6584;48.022;11.810;2023-02-01T03:31:49;4.07;;;3.20;;
13034;SDS011;6584;48.022;11.810;2023-02-01T03:34:15;5.47;;;3.53;;
13034;SDS011;6584;48.022;11.810;2023-02-01T03:36:48;3.25;;;2.88;;
13034;SDS011;6584;48.022;11.810;2023-02-01T03:39:29;3.88;;;2.97;;
13034;SDS011;6584;48.022;11.810;2023-02-01T03:41:59;3.72;;;3.25;;
13034;SDS011;6584;48.022;11.810;2023-02-01T03:45:11;4.47;;;3.03;;
13034;SDS011;6584;48.022;11.810;2023-02-01T03:47:27;4.95;;;3.30;;
13034;SDS011;6584;48.022;11.810;2023-02-01T03:49:56;3.20;;;2.90;;
13034;SDS011;6584;48.022;11.810;2023-02-01T03:52:28;4.30;;;3.03;;
13034;SDS011;6584;48.022;11.810;2023-02-01T03:54:59;4.38;;;3.08;;
13034;SDS011;6584;48.022;11.810;2023-02-01T03:57:27;4.85;;;3.38;;
13034;SDS011;6584;48.022;11.810;2023-02-01T04:00:14;4.97;;;2.95;;
13034;SDS011;6584;48.022;11.810;2023-02-01T04:02:42;3.65;;;2.85;;
13034;SDS011;6584;48.022;11.810;2023-02-01T04:05:08;4.03;;;2.92;;
13034;SDS011;6584;48.022;11.810;2023-02-01T04:07:34;4.90;;;3.00;;
13034;SDS011;6584;48.022;11.810;2023-02-01T04:09:59;3.88;;;3.33;;
13034;SDS011;6584;48.022;11.810;2023-02-01T04:12:25;3.42;;;3.03;;
13034;SDS011;6584;48.022;11.810;2023-02-01T04:14:51;5.07;;;3.20;;
13034;SDS011;6584;48.022;11.810;2023-02-01T04:17:16;4.07;;;3.30;;
13034;SDS011;6584;48.022;11.810;2023-02-01T04:19:42;3.95;;;3.05;;
13034;SDS011;6584;48.022;11.810;2023-02-01T04:22:07;6.30;;;3.42;;
13034;SDS011;6584;48.022;11.810;2023-02-01T04:24:33;4.35;;;3.40;;
13034;SDS011;6584;48.022;11.810;2023-02-01T04:26:58;4.40;;;3.40;;
13034;SDS011;6584;48.022;11.810;2023-02-01T04:29:24;3.35;;;3.03;;
13034;SDS011;6584;48.022;11.810;2023-02-01T04:31:49;5.13;;;3.25;;
13034;SDS011;6584;48.022;11.810;2023-02-01T04:34:15;3.80;;;3.13;;
13034;SDS011;6584;48.022;11.810;2023-02-01T04:36:41;3.40;;;2.92;;
13034;SDS011;6584;48.022;11.810;2023-02-01T04:39:08;3.90;;;2.90;;
13034;SDS011;6584;48.022;11.810;2023-02-01T04:41:34;4.65;;;3.03;;
13034;SDS011;6584;48.022;11.810;2023-02-01T04:43:59;4.15;;;3.38;;
13034;SDS011;6584;48.022;11.810;2023-02-01T04:46:25;3.95;;;2.70;;
13034;SDS011;6584;48.022;11.810;2023-02-01T04:48:50;4.65;;;3.17;;
13034;SDS011;6584;48.022;11.810;2023-02-01T04:51:16;5.65;;;3.35;;
13034;SDS011;6584;48.022;11.810;2023-02-01T04:53:43;4.90;;;3.35;;
13034;SDS011;6584;48.022;11.810;2023-02-01T04:56:09;3.63;;;3.28;;
13034;SDS011;6584;48.022;11.810;2023-02-01T04:58:34;3.58;;;3.13;;
13034;SDS011;6584;48.022;11.810;2023-02-01T05:01:03;4.32;;;3.42;;
13034;SDS011;6584;48.022;11.810;2023-02-01T05:03:33;4.32;;;3.63;;
13034;SDS011;6584;48.022;11.810;2023-02-01T05:06:00;3.95;;;3.30;;
13034;SDS011;6584;48.022;11.810;2023-02-01T05:08:26;4.03;;;3.63;;
13034;SDS011;6584;48.022;11.810;2023-02-01T05:10:52;4.28;;;3.05;;
13034;SDS011;6584;48.022;11.810;2023-02-01T05:13:18;4.70;;;3.50;;
13034;SDS011;6584;48.022;11.810;2023-02-01T05:16:02;4.43;;;3.38;;
13034;SDS011;6584;48.022;11.810;2023-02-01T05:18:28;4.70;;;3.22;;
13034;SDS011;6584;48.022;11.810;2023-02-01T05:20:53;4.45;;;3.40;;
13034;SDS011;6584;48.022;11.810;2023-02-01T05:23:19;6.00;;;3.55;;
13034;SDS011;6584;48.022;11.810;2023-02-01T05:25:45;4.80;;;3.72;;
13034;SDS011;6584;48.022;11.810;2023-02-01T05:28:10;4.00;;;3.45;;
13034;SDS011;6584;48.022;11.810;2023-02-01T05:30:36;3.88;;;3.42;;
13034;SDS011;6584;48.022;11.810;2023-02-01T05:33:02;4.45;;;3.83;;
13034;SDS011;6584;48.022;11.810;2023-02-01T05:35:28;3.70;;;3.30;;
13034;SDS011;6584;48.022;11.810;2023-02-01T05:37:54;4.15;;;3.30;;
13034;SDS011;6584;48.022;11.810;2023-02-01T05:40:19;4.82;;;3.30;;
13034;SDS011;6584;48.022;11.810;2023-02-01T05:42:45;4.32;;;3.88;;
13034;SDS011;6584;48.022;11.810;2023-02-01T05:45:11;4.30;;;3.47;;
13034;SDS011;6584;48.022;11.810;2023-02-01T05:47:36;5.35;;;4.00;;
13034;SDS011;6584;48.022;11.810;2023-02-01T05:50:02;4.43;;;3.95;;
13034;SDS011;6584;48.022;11.810;2023-02-01T05:52:29;4.15;;;3.60;;
13034;SDS011;6584;48.022;11.810;2023-02-01T05:54:55;5.30;;;3.78;;
13034;SDS011;6584;48.022;11.810;2023-02-01T05:57:20;5.13;;;3.88;;
13034;SDS011;6584;48.022;11.810;2023-02-01T05:59:46;4.68;;;3.42;;
13034;SDS011;6584;48.022;11.810;2023-02-01T06:02:12;5.38;;;3.97;;
13034;SDS011;6584;48.022;11.810;2023-02-01T06:04:38;4.57;;;3.72;;
13034;SDS011;6584;48.022;11.810;2023-02-01T06:07:04;4.75;;;3.90;;
13034;SDS011;6584;48.022;11.810;2023-02-01T06:09:32;5.78;;;4.03;;
13034;SDS011;6584;48.022;11.810;2023-02-01T06:11:59;4.95;;;3.78;;
13034;SDS011;6584;48.022;11.810;2023-02-01T06:14:25;6.55;;;4.07;;
13034;SDS011;6584;48.022;11.810;2023-02-01T06:16:52;6.00;;;3.90;;
13034;SDS011;6584;48.022;11.810;2023-02-01T06:19:18;4.57;;;4.07;;
13034;SDS011;6584;48.022;11.810;2023-02-01T06:21:43;5.25;;;4.18;;
13034;SDS011;6584;48.022;11.810;2023-02-01T06:24:09;5.60;;;3.97;;
13034;SDS011;6584;48.022;11.810;2023-02-01T06:26:35;5.35;;;4.13;;
13034;SDS011;6584;48.022;11.810;2023-02-01T06:29:01;5.68;;;4.15;;
13034;SDS011;6584;48.022;11.810;2023-02-01T06:31:26;4.20;;;3.80;;
13034;SDS011;6584;48.022;11.810;2023-02-01T06:33:52;5.18;;;3.90;;
13034;SDS011;6584;48.022;11.810;2023-02-01T06:36:18;5.28;;;4.10;;
13034;SDS011;6584;48.022;11.810;2023-02-01T06:38:46;5.72;;;4.38;;
13034;SDS011;6584;48.022;11.810;2023-02-01T06:41:12;4.18;;;3.70;;
13034;SDS011;6584;48.022;11.810;2023-02-01T06:43:37;4.10;;;3.70;;
13034;SDS011;6584;48.022;11.810;2023-02-01T06:46:04;5.07;;;3.75;;
13034;SDS011;6584;48.022;11.810;2023-02-01T06:48:32;4.55;;;3.55;;
13034;SDS011;6584;48.022;11.810;2023-02-01T06:50:58;5.05;;;3.50;;
13034;SDS011;6584;48.022;11.810;2023-02-01T06:53:24;4.13;;;3.70;;
13034;SDS011;6584;48.022;11.810;2023-02-01T06:55:57;4.00;;;3.50;;
13034;SDS011;6584;48.022;11.810;2023-02-01T06:58:27;4.15;;;3.65;;
13034;SDS011;6584;48.022;11.810;2023-02-01T07:00:54;4.45;;;3.50;;
13034;SDS011;6584;48.022;11.810;2023-02-01T07:03:20;4.68;;;3.80;;
13034;SDS011;6584;48.022;11.810;2023-02-01T07:05:45;4.60;;;4.05;;
13034;SDS011;6584;48.022;11.810;2023-02-01T07:08:11;4.15;;;3.70;;
13034;SDS011;6584;48.022;11.810;2023-02-01T07:10:37;3.75;;;3.25;;
13034;SDS011;6584;48.022;11.810;2023-02-01T07:13:02;5.20;;;3.72;;
13034;SDS011;6584;48.022;11.810;2023-02-01T07:15:29;5.88;;;3.72;;
13034;SDS011;6584;48.022;11.810;2023-02-01T07:17:54;5.20;;;4.00;;
13034;SDS011;6584;48.022;11.810;2023-02-01T07:20:20;5.18;;;3.78;;
13034;SDS011;6584;48.022;11.810;2023-02-01T07:22:46;3.95;;;3.33;;
13034;SDS011;6584;48.022;11.810;2023-02-01T07:25:11;4.25;;;3.47;;
13034;SDS011;6584;48.022;11.810;2023-02-01T07:27:37;4.88;;;3.63;;
13034;SDS011;6584;48.022;11.810;2023-02-01T07:30:06;3.83;;;3.20;;
13034;SDS011;6584;48.022;11.810;2023-02-01T07:32:32;4.10;;;3.50;;
13034;SDS011;6584;48.022;11.810;2023-02-01T07:34:57;3.85;;;3.45;;
13034;SDS011;6584;48.022;11.810;2023-02-01T07:37:23;4.78;;;3.45;;
13034;SDS011;6584;48.022;11.810;2023-02-01T07:39:52;4.18;;;3.15;;
13034;SDS011;6584;48.022;11.810;2023-02-01T07:42:18;3.60;;;3.03;;
13034;SDS011;6584;48.022;11.810;2023-02-01T07:44:44;4.30;;;3.13;;
13034;SDS011;6584;48.022;11.810;2023-02-01T07:47:09;3.58;;;3.10;;
13034;SDS011;6584;48.022;11.810;2023-02-01T07:49:35;4.07;;;3.17;;
13034;SDS011;6584;48.022;11.810;2023-02-01T07:52:01;4.60;;;3.47;;
13034;SDS011;6584;48.022;11.810;2023-02-01T07:54:26;3.67;;;2.90;;
13034;SDS011;6584;48.022;11.810;2023-02-01T07:56:52;4.65;;;3.10;;
13034;SDS011;6584;48.022;11.810;2023-02-01T07:59:17;3.95;;;3.00;;
13034;SDS011;6584;48.022;11.810;2023-02-01T08:01:43;3.50;;;3.08;;
13034;SDS011;6584;48.022;11.810;2023-02-01T08:04:09;4.70;;;3.40;;
13034;SDS011;6584;48.022;11.810;2023-02-01T08:06:37;3.83;;;3.33;;
13034;SDS011;6584;48.022;11.810;2023-02-01T08:09:02;3.53;;;3.13;;
13034;SDS011;6584;48.022;11.810;2023-02-01T08:11:29;3.40;;;3.08;;
13034;SDS011;6584;48.022;11.810;2023-02-01T08:13:55;5.80;;;3.00;;
13034;SDS011;6584;48.022;11.810;2023-02-01T08:16:21;4.57;;;3.08;;
13034;SDS011;6584;48.022;11.810;2023-02-01T08:18:48;4.32;;;2.90;;
13034;SDS011;6584;48.022;11.810;2023-02-01T08:21:15;3.58;;;3.10;;
13034;SDS011;6584;48.022;11.810;2023-02-01T08:23:43;4.03;;;3.13;;
13034;SDS011;6584;48.022;11.810;2023-02-01T08:28:34;4.18;;;3.10;;
13034;SDS011;6584;48.022;11.810;2023-02-01T08:31:04;3.80;;;3.22;;
13034;SDS011;6584;48.022;11.810;2023-02-01T08:33:30;3.88;;;3.10;;
13034;SDS011;6584;48.022;11.810;2023-02-01T08:35:56;3.47;;;2.72;;
13034;SDS011;6584;48.022;11.810;2023-02-01T08:38:21;3.83;;;3.05;;
13034;SDS011;6584;48.022;11.810;2023-02-01T08:40:47;3.95;;;3.20;;
13034;SDS011;6584;48.022;11.810;2023-02-01T08:43:12;2.90;;;2.53;;
13034;SDS011;6584;48.022;11.810;2023-02-01T08:45:39;4.72;;;2.92;;
13034;SDS011;6584;48.022;11.810;2023-02-01T08:48:05;3.30;;;2.90;;
13034;SDS011;6584;48.022;11.810;2023-02-01T08:50:31;2.83;;;2.28;;
13034;SDS011;6584;48.022;11.810;2023-02-01T08:52:56;3.35;;;2.90;;
13034;SDS011;6584;48.022;11.810;2023-02-01T08:55:22;3.67;;;2.53;;
13034;SDS011;6584;48.022;11.810;2023-02-01T08:57:47;2.88;;;2.58;;
13034;SDS011;6584;48.022;11.810;2023-02-01T09:00:15;3.70;;;2.70;;
13034;SDS011;6584;48.022;11.810;2023-02-01T09:02:42;3.00;;;2.70;;
13034;SDS011;6584;48.022;11.810;2023-02-01T09:05:09;3.33;;;2.60;;
13034;SDS011;6584;48.022;11.810;2023-02-01T09:07:35;3.83;;;2.70;;
13034;SDS011;6584;48.022;11.810;2023-02-01T09:10:01;4.28;;;2.60;;
13034;SDS011;6584;48.022;11.810;2023-02-01T09:12:28;3.50;;;2.50;;
13034;SDS011;6584;48.022;11.810;2023-02-01T09:14:56;4.45;;;3.20;;
13034;SDS011;6584;48.022;11.810;2023-02-01T09:17:24;3.58;;;3.00;;
13034;SDS011;6584;48.022;11.810;2023-02-01T09:19:53;4.30;;;2.90;;
13034;SDS011;6584;48.022;11.810;2023-02-01T09:22:18;5.88;;;3.28;;
13034;SDS011;6584;48.022;11.810;2023-02-01T09:24:44;4.60;;;2.42;;
13034;SDS011;6584;48.022;11.810;2023-02-01T09:27:10;3.45;;;2.75;;
13034;SDS011;6584;48.022;11.810;2023-02-01T09:29:35;3.42;;;2.63;;
13034;SDS011;6584;48.022;11.810;2023-02-01T09:32:01;3.65;;;2.38;;
13034;SDS011;6584;48.022;11.810;2023-02-01T09:34:27;3.00;;;2.53;;
13034;SDS011;6584;48.022;11.810;2023-02-01T09:36:52;4.60;;;2.80;;
13034;SDS011;6584;48.022;11.810;2023-02-01T09:39:18;3.47;;;2.47;;
13034;SDS011;6584;48.022;11.810;2023-02-01T09:47:01;3.15;;;2.40;;
13034;SDS011;6584;48.022;11.810;2023-02-01T09:49:28;4.50;;;3.47;;
13034;SDS011;6584;48.022;11.810;2023-02-01T09:51:56;3.20;;;2.80;;
13034;SDS011;6584;48.022;11.810;2023-02-01T09:54:25;2.67;;;2.45;;
13034;SDS011;6584;48.022;11.810;2023-02-01T09:57:00;3.45;;;2.55;;
13034;SDS011;6584;48.022;11.810;2023-02-01T09:59:34;2.55;;;2.35;;
13034;SDS011;6584;48.022;11.810;2023-02-01T10:02:12;2.85;;;2.17;;
13034;SDS011;6584;48.022;11.810;2023-02-01T10:04:46;4.82;;;2.83;;
13034;SDS011;6584;48.022;11.810;2023-02-01T10:10:11;2.55;;;2.13;;
13034;SDS011;6584;48.022;11.810;2023-02-01T10:18:55;2.55;;;2.35;;
13034;SDS011;6584;48.022;11.810;2023-02-01T10:21:42;3.72;;;3.05;;
13034;SDS011;6584;48.022;11.810;2023-02-01T10:25:02;3.08;;;2.30;;
13034;SDS011;6584;48.022;11.810;2023-02-01T10:27:29;3.15;;;2.60;;
13034;SDS011;6584;48.022;11.810;2023-02-01T10:29:59;2.60;;;2.28;;
13034;SDS011;6584;48.022;11.810;2023-02-01T10:32:34;3.80;;;2.20;;
13034;SDS011;6584;48.022;11.810;2023-02-01T10:35:02;2.83;;;2.28;;
13034;SDS011;6584;48.022;11.810;2023-02-01T10:37:34;3.67;;;2.30;;
13034;SDS011;6584;48.022;11.810;2023-02-01T10:40:05;2.92;;;1.90;;
13034;SDS011;6584;48.022;11.810;2023-02-01T10:42:40;2.42;;;2.08;;
13034;SDS011;6584;48.022;11.810;2023-02-01T10:45:06;2.60;;;2.30;;
13034;SDS011;6584;48.022;11.810;2023-02-01T10:47:37;2.30;;;2.10;;
13034;SDS011;6584;48.022;11.810;2023-02-01T10:52:55;2.88;;;2.15;;
13034;SDS011;6584;48.022;11.810;2023-02-01T10:58:07;2.05;;;1.83;;
13034;SDS011;6584;48.022;11.810;2023-02-01T11:00:48;2.53;;;2.33;;
13034;SDS011;6584;48.022;11.810;2023-02-01T11:03:38;2.50;;;2.10;;
13034;SDS011;6584;48.022;11.810;2023-02-01T11:06:24;3.05;;;2.40;;
13034;SDS011;6584;48.022;11.810;2023-02-01T11:08:55;2.60;;;2.10;;
13034;SDS011;6584;48.022;11.810;2023-02-01T11:11:23;3.55;;;2.25;;
13034;SDS011;6584;48.022;11.810;2023-02-01T11:13:56;2.65;;;2.20;;
13034;SDS011;6584;48.022;11.810;2023-02-01T11:16:33;3.95;;;2.25;;
13034;SDS011;6584;48.022;11.810;2023-02-01T11:19:00;3.80;;;2.30;;
13034;SDS011;6584;48.022;11.810;2023-02-01T11:21:26;2.00;;;1.80;;
13034;SDS011;6584;48.022;11.810;2023-02-01T11:23:52;3.22;;;2.20;;
13034;SDS011;6584;48.022;11.810;2023-02-01T11:29:24;2.60;;;2.13;;
13034;SDS011;6584;48.022;11.810;2023-02-01T11:31:46;3.83;;;2.33;;
13034;SDS011;6584;48.022;11.810;2023-02-01T11:34:22;4.07;;;1.90;;
13034;SDS011;6584;48.022;11.810;2023-02-01T11:37:20;2.85;;;2.28;;
13034;SDS011;6584;48.022;11.810;2023-02-01T11:39:59;2.97;;;2.42;;
13034;SDS011;6584;48.022;11.810;2023-02-01T11:42:27;4.15;;;2.50;;
13034;SDS011;6584;48.022;11.810;2023-02-01T11:47:52;5.50;;;3.00;;
13034;SDS011;6584;48.022;11.810;2023-02-01T11:50:21;2.47;;;2.13;;
13034;SDS011;6584;48.022;11.810;2023-02-01T12:01:24;2.55;;;2.05;;
13034;SDS011;6584;48.022;11.810;2023-02-01T12:15:10;5.32;;;2.92;;
13034;SDS011;6584;48.022;11.810;2023-02-01T12:20:56;4.55;;;2.38;;
13034;SDS011;6584;48.022;11.810;2023-02-01T12:29:02;5.63;;;2.55;;
13034;SDS011;6584;48.022;11.810;2023-02-01T12:40:17;3.90;;;2.17;;
13034;SDS011;6584;48.022;11.810;2023-02-01T12:43:01;5.65;;;2.90;;
13034;SDS011;6584;48.022;11.810;2023-02-01T12:45:33;5.40;;;2.50;;
13034;SDS011;6584;48.022;11.810;2023-02-01T12:48:05;3.00;;;2.55;;
13034;SDS011;6584;48.022;11.810;2023-02-01T12:50:47;4.78;;;2.63;;
13034;SDS011;6584;48.022;11.810;2023-02-01T12:53:32;4.18;;;2.60;;
13034;SDS011;6584;48.022;11.810;2023-02-01T12:56:13;3.38;;;2.33;;
13034;SDS011;6584;48.022;11.810;2023-02-01T12:58:45;5.80;;;2.65;;
13034;SDS011;6584;48.022;11.810;2023-02-01T13:01:27;5.50;;;2.60;;
13034;SDS011;6584;48.022;11.810;2023-02-01T13:04:12;3.78;;;2.17;;
13034;SDS011;6584;48.022;11.810;2023-02-01T13:06:41;4.38;;;2.38;;
13034;SDS011;6584;48.022;11.810;2023-02-01T13:09:26;5.55;;;2.50;;
13034;SDS011;6584;48.022;11.810;2023-02-01T13:12:06;3.75;;;2.08;;
13034;SDS011;6584;48.022;11.810;2023-02-01T13:14:42;4.13;;;2.25;;
13034;SDS011;6584;48.022;11.810;2023-02-01T13:19:53;7.93;;;2.85;;
13034;SDS011;6584;48.022;11.810;2023-02-01T13:22:21;3.47;;;2.55;;
13034;SDS011;6584;48.022;11.810;2023-02-01T13:24:52;4.68;;;2.13;;
13034;SDS011;6584;48.022;11.810;2023-02-01T13:27:22;4.05;;;2.30;;
13034;SDS011;6584;48.022;11.810;2023-02-01T13:43:47;4.30;;;2.10;;
13034;SDS011;6584;48.022;11.810;2023-02-01T13:46:16;5.88;;;2.65;;
13034;SDS011;6584;48.022;11.810;2023-02-01T13:48:46;3.45;;;2.38;;
13034;SDS011;6584;48.022;11.810;2023-02-01T13:51:19;3.78;;;2.30;;
13034;SDS011;6584;48.022;11.810;2023-02-01T13:54:00;3.17;;;2.30;;
13034;SDS011;6584;48.022;11.810;2023-02-01T13:56:26;3.03;;;2.30;;
13034;SDS011;6584;48.022;11.810;2023-02-01T13:58:52;4.00;;;2.42;;
13034;SDS011;6584;48.022;11.810;2023-02-01T14:03:47;3.83;;;2.17;;
13034;SDS011;6584;48.022;11.810;2023-02-01T14:08:44;3.35;;;2.22;;
13034;SDS011;6584;48.022;11.810;2023-02-01T14:11:31;2.20;;;2.00;;
13034;SDS011;6584;48.022;11.810;2023-02-01T14:16:40;3.17;;;1.92;;
13034;SDS011;6584;48.022;11.810;2023-02-01T14:19:20;3.25;;;2.03;;
13034;SDS011;6584;48.022;11.810;2023-02-01T14:25:00;3.75;;;2.20;;
13034;SDS011;6584;48.022;11.810;2023-02-01T14:27:29;3.45;;;2.10;;
13034;SDS011;6584;48.022;11.810;2023-02-01T14:30:00;3.75;;;2.13;;
13034;SDS011;6584;48.022;11.810;2023-02-01T14:32:33;3.10;;;2.03;;
13034;SDS011;6584;48.022;11.810;2023-02-01T14:35:05;3.35;;;2.25;;
13034;SDS011;6584;48.022;11.810;2023-02-01T14:37:33;5.43;;;2.20;;
13034;SDS011;6584;48.022;11.810;2023-02-01T14:42:43;4.25;;;2.13;;
13034;SDS011;6584;48.022;11.810;2023-02-01T14:45:53;4.38;;;2.20;;
13034;SDS011;6584;48.022;11.810;2023-02-01T14:56:17;3.08;;;2.10;;
13034;SDS011;6584;48.022;11.810;2023-02-01T15:06:22;6.15;;;2.13;;
13034;SDS011;6584;48.022;11.810;2023-02-01T15:08:48;3.40;;;1.75;;
13034;SDS011;6584;48.022;11.810;2023-02-01T15:11:17;3.45;;;1.90;;
13034;SDS011;6584;48.022;11.810;2023-02-01T15:13:49;3.33;;;2.00;;
13034;SDS011;6584;48.022;11.810;2023-02-01T15:16:18;3.83;;;2.17;;
13034;SDS011;6584;48.022;11.810;2023-02-01T15:18:46;3.58;;;2.28;;
13034;SDS011;6584;48.022;11.810;2023-02-01T15:21:22;4.38;;;2.00;;
13034;SDS011;6584;48.022;11.810;2023-02-01T15:23:48;3.22;;;1.98;;
13034;SDS011;6584;48.022;11.810;2023-02-01T15:26:25;3.65;;;2.38;;
13034;SDS011;6584;48.022;11.810;2023-02-01T15:28:56;3.63;;;1.90;;
13034;SDS011;6584;48.022;11.810;2023-02-01T15:31:33;5.57;;;1.90;;
13034;SDS011;6584;48.022;11.810;2023-02-01T15:34:03;5.45;;;2.03;;
13034;SDS011;6584;48.022;11.810;2023-02-01T15:36:29;4.82;;;2.10;;
13034;SDS011;6584;48.022;11.810;2023-02-01T15:39:13;3.72;;;2.05;;
13034;SDS011;6584;48.022;11.810;2023-02-01T15:44:46;5.40;;;2.10;;
13034;SDS011;6584;48.022;11.810;2023-02-01T15:47:18;7.35;;;2.25;;
13034;SDS011;6584;48.022;11.810;2023-02-01T15:49:50;3.03;;;1.90;;
13034;SDS011;6584;48.022;11.810;2023-02-01T15:52:24;3.05;;;2.22;;
13034;SDS011;6584;48.022;11.810;2023-02-01T15:54:59;3.13;;;2.20;;
13034;SDS011;6584;48.022;11.810;2023-02-01T15:57:28;5.75;;;2.33;;
13034;SDS011;6584;48.022;11.810;2023-02-01T15:59:59;4.35;;;2.45;;
13034;SDS011;6584;48.022;11.810;2023-02-01T16:02:41;4.18;;;2.47;;
13034;SDS011;6584;48.022;11.810;2023-02-01T16:05:27;6.38;;;2.50;;
13034;SDS011;6584;48.022;11.810;2023-02-01T16:08:00;4.03;;;2.40;;
13034;SDS011;6584;48.022;11.810;2023-02-01T16:10:29;4.20;;;2.58;;
13034;SDS011;6584;48.022;11.810;2023-02-01T16:12:56;3.63;;;2.25;;
13034;SDS011;6584;48.022;11.810;2023-02-01T16:15:26;4.68;;;2.50;;
13034;SDS011;6584;48.022;11.810;2023-02-01T16:17:54;4.20;;;2.70;;
13034;SDS011;6584;48.022;11.810;2023-02-01T16:20:19;4.63;;;2.42;;
13034;SDS011;6584;48.022;11.810;2023-02-01T16:22:45;4.97;;;2.55;;
13034;SDS011;6584;48.022;11.810;2023-02-01T16:25:10;7.00;;;2.30;;
13034;SDS011;6584;48.022;11.810;2023-02-01T16:27:36;3.88;;;2.13;;
13034;SDS011;6584;48.022;11.810;2023-02-01T16:30:01;4.57;;;2.58;;
13034;SDS011;6584;48.022;11.810;2023-02-01T16:32:27;4.78;;;2.60;;
13034;SDS011;6584;48.022;11.810;2023-02-01T16:34:54;3.20;;;2.20;;
13034;SDS011;6584;48.022;11.810;2023-02-01T16:37:22;5.38;;;2.35;;
13034;SDS011;6584;48.022;11.810;2023-02-01T16:39:49;5.00;;;2.15;;
13034;SDS011;6584;48.022;11.810;2023-02-01T16:42:16;5.20;;;2.03;;
13034;SDS011;6584;48.022;11.810;2023-02-01T16:44:42;3.70;;;2.28;;
13034;SDS011;6584;48.022;11.810;2023-02-01T16:47:18;7.40;;;2.33;;
13034;SDS011;6584;48.022;11.810;2023-02-01T16:49:46;5.22;;;2.05;;
13034;SDS011;6584;48.022;11.810;2023-02-01T16:52:23;3.78;;;2.35;;
13034;SDS011;6584;48.022;11.810;2023-02-01T16:54:52;5.82;;;2.25;;
13034;SDS011;6584;48.022;11.810;2023-02-01T16:57:18;4.30;;;2.30;;
13034;SDS011;6584;48.022;11.810;2023-02-01T16:59:47;6.00;;;2.22;;
13034;SDS011;6584;48.022;11.810;2023-02-01T17:02:15;6.82;;;2.28;;
13034;SDS011;6584;48.022;11.810;2023-02-01T17:04:42;5.07;;;2.30;;
13034;SDS011;6584;48.022;11.810;2023-02-01T17:07:12;5.18;;;2.17;;
13034;SDS011;6584;48.022;11.810;2023-02-01T17:09:39;6.75;;;2.60;;
13034;SDS011;6584;48.022;11.810;2023-02-01T17:12:04;3.72;;;2.00;;
13034;SDS011;6584;48.022;11.810;2023-02-01T17:14:31;4.70;;;2.08;;
13034;SDS011;6584;48.022;11.810;2023-02-01T17:17:00;5.40;;;1.90;;
13034;SDS011;6584;48.022;11.810;2023-02-01T17:19:26;6.72;;;2.30;;